< < Back
Terminal Aerodrome Forecast


Current Version              Previous Versions:   1  2  3  4  5  6  7  8  9  

Terminal Aerodrome Forecast

425
FTUS44 KBMX 280500
TAFANB
TAF
KANB 280527Z 2806/2906 22006KT P6SM SCT250
      TEMPO 2808/2810 4SM BR
     FM281000 24006KT P6SM VCSH BKN030 BKN070
     FM281600 31012KT P6SM SCT030 BKN070
     FM290100 33005KT P6SM SKC=

Latest METAR

529
SAUS70 KWBC 281400 RRD
MTRANB
METAR KANB 281353Z AUTO 29006KT 9SM FEW015 29/24 A2997 RMK AO2 SLP137
T02890239


USA.gov is the U.S. government's official web portal to all federal, state and local government web resources and services.